Flight Track Log - Related Links

Times and Time Zones

All times are in EDT time to prevent confusion due to time zone crossing. See the ASQ5605 flight status page for this flight to view local times or setup timezone preferences in your user account.

Time Position Orientation Groundspeed Altitude Reporting Facility
EDT Latitude Longitude Course Direction KTS MPH feet Rate Location/Type
Mon 09:01:07 PM 39.0333 -84.6667 123° Southeast 167 192 1,600  Level Cincinnati TRACON
Mon 09:01:43 PM 39.0167 -84.6333 123° Southeast 236 272 2,500 2,765 Climbing Cincinnati TRACON
Mon 09:02:49 PM 39.0000 -84.5333 102° East 284 327 6,300 3,476 Climbing Cincinnati TRACON
Mon 09:03:49 PM 38.9667 -84.4333 113° Southeast 284 327 9,800 2,234 Climbing Cincinnati TRACON
Mon 09:05:06 PM 38.9389 -84.2975 105° East 349 402 11,400 1,522 Climbing Indianapolis Center
Mon 09:06:07 PM 38.9061 -84.1578 107° East 402 463 13,300 2,195 Climbing Indianapolis Center
Mon 09:07:09 PM 38.8711 -84.0200 108° East 405 466 15,900 2,390 Climbing Indianapolis Center
Mon 09:08:10 PM 38.8417 -83.8778 105° East 406 467 18,200 2,146 Climbing Indianapolis Center
Mon 09:09:12 PM 38.8106 -83.7372 106° East 407 468 20,300 2,049 Climbing Indianapolis Center
Mon 09:10:13 PM 38.7728 -83.5622 105° East 430 495 22,400 1,805 Climbing Indianapolis Center
Mon 09:11:15 PM 38.7650 -83.4033 94° East 449 517 24,000 1,268 Climbing Indianapolis Center
Mon 09:12:16 PM 38.7639 -83.2417 90° East 451 519 25,000 1,220 Climbing Indianapolis Center
Mon 09:13:18 PM 38.7633 -83.0931 90° East 469 540 26,500 1,463 Climbing Indianapolis Center
Mon 09:14:19 PM 38.7600 -82.8900 91° East 475 547 28,000 1,180 Climbing Indianapolis Center
Mon 09:15:20 PM 38.7025 -82.7261 114° Southeast 502 578 28,900 732 Climbing Indianapolis Center
Mon 09:16:22 PM 38.6386 -82.5517 115° Southeast 513 590 29,500 1,317 Climbing Indianapolis Center
Mon 09:17:23 PM 38.5831 -82.4014 115° Southeast 501 577 31,600 1,820 Climbing Indianapolis Center
Mon 09:18:24 PM 38.5253 -82.2442 115° Southeast 493 567 33,200 1,268 Climbing Indianapolis Center
Mon 09:19:26 PM 38.4653 -82.0844 116° Southeast 499 574 34,200 878 Climbing Indianapolis Center
Mon 09:20:27 PM 38.4053 -81.9236 115° Southeast 506 582 35,000 390 Climbing Indianapolis Center
Mon 09:21:29 PM 38.3544 -81.7503 110° East 528 608 35,000  Level Indianapolis Center
Mon 09:22:30 PM 38.3422 -81.5283 94° East 531 611 35,000  Level Indianapolis Center
Mon 09:23:31 PM 38.3356 -81.3447 93° East 527 606 35,000  Level Indianapolis Center
Mon 09:24:33 PM 38.3292 -81.1611 92° East 523 602 35,000  Level Indianapolis Center
Mon 09:25:34 PM 38.3219 -80.9769 93° East 522 601 35,000  Level Indianapolis Center
Mon 09:26:35 PM 38.3153 -80.7925 93° East 523 602 35,000  Level Indianapolis Center
Mon 09:27:36 PM 38.3094 -80.6072 92° East 526 605 35,000  Level Indianapolis Center
Mon 09:28:25 PM 38.3039 -80.4631 93° East 521 600 35,000  Level Washington Center
Mon 09:29:25 PM 38.2967 -80.2772 93° East 521 600 35,000  Level Washington Center
Mon 09:30:26 PM 38.2889 -80.0942 93° East 521 600 35,000  Level Washington Center
Mon 09:31:26 PM 38.2797 -79.8900 93° East 521 600 35,000  Level Washington Center
Mon 09:32:24 PM 38.2903 -79.7108 86° East 515 593 35,000 -508 Level Washington Center
Mon 09:33:24 PM 38.3394 -79.5467 69° East 502 578 34,000 -1,537 Descending Washington Center
Mon 09:34:25 PM 38.3969 -79.3881 65° Northeast 484 557 31,900 -1,900 Descending Washington Center
Mon 09:35:24 PM 38.4372 -79.2311 72° East 478 550 30,200 -1,815 Descending Washington Center
Mon 09:36:24 PM 38.4644 -79.0867 76° East 466 536 28,300 -1,950 Descending Washington Center
Mon 09:37:24 PM 38.4897 -78.9339 78° East 456 525 26,300 -1,983 Descending Washington Center
Mon 09:38:25 PM 38.5125 -78.7783 79° East 445 512 24,300 -1,820 Descending Washington Center
Mon 09:39:26 PM 38.5353 -78.6308 79° East 435 501 22,600 -1,765 Descending Washington Center
Mon 09:40:24 PM 38.5597 -78.4858 78° East 424 488 20,800 -1,881 Descending Washington Center
Mon 09:41:24 PM 38.5794 -78.3511 79° East 410 472 18,900 -1,623 Descending Washington Center
Mon 09:42:26 PM 38.6094 -78.2192 74° East 388 447 17,500 -1,450 Descending Washington Center
Mon 09:43:24 PM 38.6478 -78.0931 69° East 377 434 16,000 -1,576 Descending Washington Center
Mon 09:44:24 PM 38.6856 -77.9772 67° East 362 417 14,400 -1,450 Descending Washington Center
Mon 09:45:24 PM 38.7189 -77.8692 68° East 341 392 13,100 -1,250 Descending Washington Center
Mon 09:46:24 PM 38.7664 -77.7803 56° Northeast 315 362 11,900 -1,050 Descending Washington Center
Mon 09:47:24 PM 38.8200 -77.6911 52° Northeast 310 357 11,000 -1,212 Descending Washington Center
Mon 09:48:08 PM 38.8500 -77.6000 67° East 315 362 9,800 -1,558 Descending Potomac TRACON
Mon 09:49:08 PM 38.8833 -77.5000 67° East 304 350 8,300 -1,000 Descending Potomac TRACON
Mon 09:50:14 PM 38.8833 -77.4000 90° East 301 346 7,700 -1,100 Descending Potomac TRACON
Mon 09:51:08 PM 38.8500 -77.3167 117° Southeast 286 329 6,100 -1,526 Descending Potomac TRACON
Mon 09:52:08 PM 38.8000 -77.2333 128° Southeast 282 325 4,800 -1,450 Descending Potomac TRACON
Mon 09:53:08 PM 38.7500 -77.1667 134° Southeast 269 310 3,200 -1,150 Descending Potomac TRACON
Mon 09:54:08 PM 38.7167 -77.1000 123° Southeast 236 272 2,500 -600 Descending Potomac TRACON
Mon 09:55:08 PM 38.7333 -77.0500 67° East 181 208 2,000 -550 Descending Potomac TRACON
Mon 09:56:08 PM 38.7833 -77.0333 15° North 162 186 1,400 -700 Descending Potomac TRACON
Mon 09:57:08 PM 38.8167 -77.0333 360° North 130 150 600 -800 Descending Potomac TRACON
Mon 09:59:00 PM 38.8500 -77.0333 North  Level FlightAware Approximate
Mon 10:06:00 PM 38.8519 -77.0377 North  Level Estimated
Mon 10:07:00 PM 38.8500 -77.0333 North  Level FlightAware Approximate
Mon 10:08:00 PM 38.8519 -77.0377 North  Level Estimated
Mon 10:09:00 PM 38.8500 -77.0333 North  Level FlightAware Approximate

Login

Don't have an account? Register now (free) for customized features, flight alerts, and more!